sensor_id;sensor_type;location;lat;lon;timestamp;P1;durP1;ratioP1;P2;durP2;ratioP2
81697;SDS011;71109;52.514;5.708;2023-09-07T00:00:20;9.90;;;5.57;;
81697;SDS011;71109;52.514;5.708;2023-09-07T00:02:46;12.60;;;7.80;;
81697;SDS011;71109;52.514;5.708;2023-09-07T00:05:11;12.70;;;6.47;;
81697;SDS011;71109;52.514;5.708;2023-09-07T00:07:38;13.93;;;8.35;;
81697;SDS011;71109;52.514;5.708;2023-09-07T00:10:03;15.00;;;7.30;;
81697;SDS011;71109;52.514;5.708;2023-09-07T00:12:29;14.32;;;6.80;;
81697;SDS011;71109;52.514;5.708;2023-09-07T00:14:55;14.13;;;7.22;;
81697;SDS011;71109;52.514;5.708;2023-09-07T00:17:20;13.48;;;8.30;;
81697;SDS011;71109;52.514;5.708;2023-09-07T00:19:46;21.17;;;8.73;;
81697;SDS011;71109;52.514;5.708;2023-09-07T00:22:15;13.32;;;7.32;;
81697;SDS011;71109;52.514;5.708;2023-09-07T00:24:41;11.95;;;7.38;;
81697;SDS011;71109;52.514;5.708;2023-09-07T00:27:06;13.23;;;8.17;;
81697;SDS011;71109;52.514;5.708;2023-09-07T00:29:33;16.98;;;8.63;;
81697;SDS011;71109;52.514;5.708;2023-09-07T00:31:59;25.70;;;8.13;;
81697;SDS011;71109;52.514;5.708;2023-09-07T00:34:25;14.25;;;7.47;;
81697;SDS011;71109;52.514;5.708;2023-09-07T00:36:50;14.25;;;8.73;;
81697;SDS011;71109;52.514;5.708;2023-09-07T00:39:16;17.73;;;7.80;;
81697;SDS011;71109;52.514;5.708;2023-09-07T00:41:41;13.67;;;7.90;;
81697;SDS011;71109;52.514;5.708;2023-09-07T00:44:06;16.43;;;8.47;;
81697;SDS011;71109;52.514;5.708;2023-09-07T00:46:32;17.23;;;8.32;;
81697;SDS011;71109;52.514;5.708;2023-09-07T00:48:57;16.30;;;9.95;;
81697;SDS011;71109;52.514;5.708;2023-09-07T00:51:25;16.75;;;9.00;;
81697;SDS011;71109;52.514;5.708;2023-09-07T00:53:50;15.73;;;9.45;;
81697;SDS011;71109;52.514;5.708;2023-09-07T00:56:15;15.85;;;8.25;;
81697;SDS011;71109;52.514;5.708;2023-09-07T00:58:41;15.35;;;9.57;;
81697;SDS011;71109;52.514;5.708;2023-09-07T01:01:08;18.73;;;9.25;;
81697;SDS011;71109;52.514;5.708;2023-09-07T01:03:33;19.92;;;10.75;;
81697;SDS011;71109;52.514;5.708;2023-09-07T01:06:12;14.07;;;9.68;;
81697;SDS011;71109;52.514;5.708;2023-09-07T01:08:44;17.08;;;10.57;;
81697;SDS011;71109;52.514;5.708;2023-09-07T01:11:18;21.30;;;10.65;;
81697;SDS011;71109;52.514;5.708;2023-09-07T01:13:51;23.63;;;10.15;;
81697;SDS011;71109;52.514;5.708;2023-09-07T01:16:18;19.20;;;9.63;;
81697;SDS011;71109;52.514;5.708;2023-09-07T01:18:45;15.55;;;9.80;;
81697;SDS011;71109;52.514;5.708;2023-09-07T01:21:11;15.55;;;9.30;;
81697;SDS011;71109;52.514;5.708;2023-09-07T01:23:37;25.75;;;10.23;;
81697;SDS011;71109;52.514;5.708;2023-09-07T01:26:05;18.25;;;9.13;;
81697;SDS011;71109;52.514;5.708;2023-09-07T01:28:31;17.77;;;9.13;;
81697;SDS011;71109;52.514;5.708;2023-09-07T01:30:57;16.83;;;9.32;;
81697;SDS011;71109;52.514;5.708;2023-09-07T01:33:23;20.30;;;9.50;;
81697;SDS011;71109;52.514;5.708;2023-09-07T01:35:48;15.82;;;8.90;;
81697;SDS011;71109;52.514;5.708;2023-09-07T01:38:13;16.73;;;8.43;;
81697;SDS011;71109;52.514;5.708;2023-09-07T01:40:39;21.45;;;8.98;;
81697;SDS011;71109;52.514;5.708;2023-09-07T01:43:04;16.63;;;8.73;;
81697;SDS011;71109;52.514;5.708;2023-09-07T01:45:29;16.23;;;9.68;;
81697;SDS011;71109;52.514;5.708;2023-09-07T01:47:55;14.73;;;9.63;;
81697;SDS011;71109;52.514;5.708;2023-09-07T01:50:20;13.18;;;8.57;;
81697;SDS011;71109;52.514;5.708;2023-09-07T01:52:52;14.20;;;8.45;;
81697;SDS011;71109;52.514;5.708;2023-09-07T01:55:17;15.07;;;8.70;;
81697;SDS011;71109;52.514;5.708;2023-09-07T01:57:43;19.83;;;9.65;;
81697;SDS011;71109;52.514;5.708;2023-09-07T02:00:09;19.15;;;9.85;;
81697;SDS011;71109;52.514;5.708;2023-09-07T02:02:35;19.83;;;9.32;;
81697;SDS011;71109;52.514;5.708;2023-09-07T02:05:00;16.10;;;9.38;;
81697;SDS011;71109;52.514;5.708;2023-09-07T02:07:26;24.58;;;10.18;;
81697;SDS011;71109;52.514;5.708;2023-09-07T02:09:51;18.87;;;10.87;;
81697;SDS011;71109;52.514;5.708;2023-09-07T02:12:17;16.60;;;9.83;;
81697;SDS011;71109;52.514;5.708;2023-09-07T02:14:42;20.20;;;9.97;;
81697;SDS011;71109;52.514;5.708;2023-09-07T02:17:08;17.15;;;10.95;;
81697;SDS011;71109;52.514;5.708;2023-09-07T02:19:33;15.50;;;10.20;;
81697;SDS011;71109;52.514;5.708;2023-09-07T02:21:59;16.15;;;9.25;;
81697;SDS011;71109;52.514;5.708;2023-09-07T02:24:24;22.73;;;10.02;;
81697;SDS011;71109;52.514;5.708;2023-09-07T02:26:49;15.27;;;9.70;;
81697;SDS011;71109;52.514;5.708;2023-09-07T02:29:15;15.43;;;10.40;;
81697;SDS011;71109;52.514;5.708;2023-09-07T02:31:41;18.15;;;9.68;;
81697;SDS011;71109;52.514;5.708;2023-09-07T02:34:06;13.82;;;9.00;;
81697;SDS011;71109;52.514;5.708;2023-09-07T02:36:32;15.45;;;9.55;;
81697;SDS011;71109;52.514;5.708;2023-09-07T02:38:59;14.85;;;10.18;;
81697;SDS011;71109;52.514;5.708;2023-09-07T02:41:25;21.13;;;10.25;;
81697;SDS011;71109;52.514;5.708;2023-09-07T02:43:50;16.37;;;9.53;;
81697;SDS011;71109;52.514;5.708;2023-09-07T02:46:16;16.20;;;9.77;;
81697;SDS011;71109;52.514;5.708;2023-09-07T02:48:41;19.70;;;10.45;;
81697;SDS011;71109;52.514;5.708;2023-09-07T02:51:07;18.13;;;10.10;;
81697;SDS011;71109;52.514;5.708;2023-09-07T02:53:32;16.60;;;10.60;;
81697;SDS011;71109;52.514;5.708;2023-09-07T02:55:58;24.48;;;10.10;;
81697;SDS011;71109;52.514;5.708;2023-09-07T02:58:24;17.90;;;9.50;;
81697;SDS011;71109;52.514;5.708;2023-09-07T03:00:49;16.50;;;10.70;;
81697;SDS011;71109;52.514;5.708;2023-09-07T03:03:15;19.70;;;10.27;;
81697;SDS011;71109;52.514;5.708;2023-09-07T03:05:40;14.85;;;9.57;;
81697;SDS011;71109;52.514;5.708;2023-09-07T03:08:06;21.55;;;9.90;;
81697;SDS011;71109;52.514;5.708;2023-09-07T03:10:32;14.75;;;10.10;;
81697;SDS011;71109;52.514;5.708;2023-09-07T03:12:57;18.38;;;9.52;;
81697;SDS011;71109;52.514;5.708;2023-09-07T03:15:23;15.77;;;10.18;;
81697;SDS011;71109;52.514;5.708;2023-09-07T03:17:48;18.45;;;10.63;;
81697;SDS011;71109;52.514;5.708;2023-09-07T03:20:13;24.83;;;10.35;;
81697;SDS011;71109;52.514;5.708;2023-09-07T03:22:42;17.60;;;10.02;;
81697;SDS011;71109;52.514;5.708;2023-09-07T03:25:09;17.85;;;10.35;;
81697;SDS011;71109;52.514;5.708;2023-09-07T03:27:35;21.27;;;10.80;;
81697;SDS011;71109;52.514;5.708;2023-09-07T03:30:01;17.33;;;9.85;;
81697;SDS011;71109;52.514;5.708;2023-09-07T03:32:27;18.27;;;10.52;;
81697;SDS011;71109;52.514;5.708;2023-09-07T03:34:57;18.48;;;10.45;;
81697;SDS011;71109;52.514;5.708;2023-09-07T03:37:22;18.83;;;10.52;;
81697;SDS011;71109;52.514;5.708;2023-09-07T03:39:47;14.80;;;10.10;;
81697;SDS011;71109;52.514;5.708;2023-09-07T03:42:13;18.70;;;10.13;;
81697;SDS011;71109;52.514;5.708;2023-09-07T03:44:38;22.60;;;10.60;;
81697;SDS011;71109;52.514;5.708;2023-09-07T03:47:04;16.65;;;9.80;;
81697;SDS011;71109;52.514;5.708;2023-09-07T03:49:30;12.93;;;8.88;;
81697;SDS011;71109;52.514;5.708;2023-09-07T03:51:55;18.90;;;9.82;;
81697;SDS011;71109;52.514;5.708;2023-09-07T03:54:21;19.40;;;9.85;;
81697;SDS011;71109;52.514;5.708;2023-09-07T03:56:46;19.43;;;9.47;;
81697;SDS011;71109;52.514;5.708;2023-09-07T03:59:11;18.30;;;9.07;;
81697;SDS011;71109;52.514;5.708;2023-09-07T04:01:37;17.07;;;10.67;;
81697;SDS011;71109;52.514;5.708;2023-09-07T04:04:02;18.70;;;10.43;;
81697;SDS011;71109;52.514;5.708;2023-09-07T04:06:27;17.42;;;10.57;;
81697;SDS011;71109;52.514;5.708;2023-09-07T04:08:53;20.75;;;11.15;;
81697;SDS011;71109;52.514;5.708;2023-09-07T04:11:18;18.10;;;10.80;;
81697;SDS011;71109;52.514;5.708;2023-09-07T04:13:44;18.47;;;11.70;;
81697;SDS011;71109;52.514;5.708;2023-09-07T04:16:09;19.42;;;11.20;;
81697;SDS011;71109;52.514;5.708;2023-09-07T04:18:35;20.45;;;12.02;;
81697;SDS011;71109;52.514;5.708;2023-09-07T04:21:07;20.90;;;12.27;;
81697;SDS011;71109;52.514;5.708;2023-09-07T04:23:33;23.48;;;11.55;;
81697;SDS011;71109;52.514;5.708;2023-09-07T04:26:09;22.38;;;11.05;;
81697;SDS011;71109;52.514;5.708;2023-09-07T04:28:36;21.30;;;10.98;;
81697;SDS011;71109;52.514;5.708;2023-09-07T04:31:02;20.90;;;11.13;;
81697;SDS011;71109;52.514;5.708;2023-09-07T04:33:34;18.40;;;10.90;;
81697;SDS011;71109;52.514;5.708;2023-09-07T04:36:07;17.80;;;11.23;;
81697;SDS011;71109;52.514;5.708;2023-09-07T04:38:36;19.38;;;12.10;;
81697;SDS011;71109;52.514;5.708;2023-09-07T04:41:19;22.30;;;12.18;;
81697;SDS011;71109;52.514;5.708;2023-09-07T04:43:45;23.15;;;12.20;;
81697;SDS011;71109;52.514;5.708;2023-09-07T04:46:11;16.30;;;10.53;;
81697;SDS011;71109;52.514;5.708;2023-09-07T04:48:37;21.73;;;11.63;;
81697;SDS011;71109;52.514;5.708;2023-09-07T04:51:03;18.92;;;11.35;;
81697;SDS011;71109;52.514;5.708;2023-09-07T04:53:30;19.23;;;12.25;;
81697;SDS011;71109;52.514;5.708;2023-09-07T04:55:56;24.48;;;12.05;;
81697;SDS011;71109;52.514;5.708;2023-09-07T04:58:22;19.35;;;11.48;;
81697;SDS011;71109;52.514;5.708;2023-09-07T05:00:48;19.77;;;11.40;;
81697;SDS011;71109;52.514;5.708;2023-09-07T05:03:13;19.88;;;14.18;;
81697;SDS011;71109;52.514;5.708;2023-09-07T05:05:39;20.23;;;10.80;;
81697;SDS011;71109;52.514;5.708;2023-09-07T05:08:04;28.27;;;12.90;;
81697;SDS011;71109;52.514;5.708;2023-09-07T05:10:32;18.27;;;11.35;;
81697;SDS011;71109;52.514;5.708;2023-09-07T05:12:58;17.05;;;11.40;;
81697;SDS011;71109;52.514;5.708;2023-09-07T05:15:24;19.10;;;11.13;;
81697;SDS011;71109;52.514;5.708;2023-09-07T05:17:49;17.40;;;11.52;;
81697;SDS011;71109;52.514;5.708;2023-09-07T05:20:14;19.13;;;11.45;;
81697;SDS011;71109;52.514;5.708;2023-09-07T05:22:40;19.60;;;10.80;;
81697;SDS011;71109;52.514;5.708;2023-09-07T05:25:06;22.38;;;11.85;;
81697;SDS011;71109;52.514;5.708;2023-09-07T05:27:33;21.27;;;11.68;;
81697;SDS011;71109;52.514;5.708;2023-09-07T05:30:02;19.05;;;10.80;;
81697;SDS011;71109;52.514;5.708;2023-09-07T05:32:28;20.75;;;11.32;;
81697;SDS011;71109;52.514;5.708;2023-09-07T05:34:53;24.45;;;11.63;;
81697;SDS011;71109;52.514;5.708;2023-09-07T05:37:18;18.27;;;10.57;;
81697;SDS011;71109;52.514;5.708;2023-09-07T05:39:44;23.20;;;11.77;;
81697;SDS011;71109;52.514;5.708;2023-09-07T05:42:09;24.25;;;12.23;;
81697;SDS011;71109;52.514;5.708;2023-09-07T05:44:35;18.13;;;11.98;;
81697;SDS011;71109;52.514;5.708;2023-09-07T05:47:00;17.00;;;10.90;;
81697;SDS011;71109;52.514;5.708;2023-09-07T05:49:27;21.02;;;12.45;;
81697;SDS011;71109;52.514;5.708;2023-09-07T05:51:52;21.27;;;11.95;;
81697;SDS011;71109;52.514;5.708;2023-09-07T05:54:18;19.10;;;11.32;;
81697;SDS011;71109;52.514;5.708;2023-09-07T05:56:43;20.80;;;11.43;;
81697;SDS011;71109;52.514;5.708;2023-09-07T05:59:09;24.80;;;12.80;;
81697;SDS011;71109;52.514;5.708;2023-09-07T06:01:34;20.38;;;11.23;;
81697;SDS011;71109;52.514;5.708;2023-09-07T06:03:59;18.20;;;11.90;;
81697;SDS011;71109;52.514;5.708;2023-09-07T06:06:25;20.83;;;11.35;;
81697;SDS011;71109;52.514;5.708;2023-09-07T06:08:50;19.27;;;11.67;;
81697;SDS011;71109;52.514;5.708;2023-09-07T06:11:16;19.30;;;11.30;;
81697;SDS011;71109;52.514;5.708;2023-09-07T06:13:41;22.33;;;11.73;;
81697;SDS011;71109;52.514;5.708;2023-09-07T06:16:07;19.38;;;11.43;;
81697;SDS011;71109;52.514;5.708;2023-09-07T06:18:32;16.98;;;11.40;;
81697;SDS011;71109;52.514;5.708;2023-09-07T06:20:57;19.80;;;12.63;;
81697;SDS011;71109;52.514;5.708;2023-09-07T06:23:23;20.08;;;12.10;;
81697;SDS011;71109;52.514;5.708;2023-09-07T06:25:48;22.60;;;12.47;;
81697;SDS011;71109;52.514;5.708;2023-09-07T06:28:13;19.48;;;12.15;;
81697;SDS011;71109;52.514;5.708;2023-09-07T06:30:39;26.88;;;13.35;;
81697;SDS011;71109;52.514;5.708;2023-09-07T06:33:04;20.33;;;11.77;;
81697;SDS011;71109;52.514;5.708;2023-09-07T06:35:29;24.67;;;12.13;;
81697;SDS011;71109;52.514;5.708;2023-09-07T06:37:55;22.58;;;12.32;;
81697;SDS011;71109;52.514;5.708;2023-09-07T06:40:21;21.33;;;11.05;;
81697;SDS011;71109;52.514;5.708;2023-09-07T06:42:47;17.85;;;11.48;;
81697;SDS011;71109;52.514;5.708;2023-09-07T06:45:13;25.38;;;11.48;;
81697;SDS011;71109;52.514;5.708;2023-09-07T06:47:38;32.07;;;14.23;;
81697;SDS011;71109;52.514;5.708;2023-09-07T06:50:04;21.50;;;11.40;;
81697;SDS011;71109;52.514;5.708;2023-09-07T06:52:30;20.23;;;11.45;;
81697;SDS011;71109;52.514;5.708;2023-09-07T06:54:56;18.30;;;12.13;;
81697;SDS011;71109;52.514;5.708;2023-09-07T06:57:21;24.45;;;11.90;;
81697;SDS011;71109;52.514;5.708;2023-09-07T06:59:46;21.95;;;11.85;;
81697;SDS011;71109;52.514;5.708;2023-09-07T07:02:12;27.05;;;12.98;;
81697;SDS011;71109;52.514;5.708;2023-09-07T07:04:37;25.13;;;11.60;;
81697;SDS011;71109;52.514;5.708;2023-09-07T07:07:03;21.23;;;11.53;;
81697;SDS011;71109;52.514;5.708;2023-09-07T07:09:32;21.17;;;11.18;;
81697;SDS011;71109;52.514;5.708;2023-09-07T07:11:59;26.92;;;11.60;;
81697;SDS011;71109;52.514;5.708;2023-09-07T07:14:25;21.67;;;11.40;;
81697;SDS011;71109;52.514;5.708;2023-09-07T07:16:50;18.13;;;11.15;;
81697;SDS011;71109;52.514;5.708;2023-09-07T07:19:16;15.10;;;10.20;;
81697;SDS011;71109;52.514;5.708;2023-09-07T07:21:41;17.73;;;12.02;;
81697;SDS011;71109;52.514;5.708;2023-09-07T07:24:07;22.45;;;11.57;;
81697;SDS011;71109;52.514;5.708;2023-09-07T07:26:32;16.33;;;10.55;;
81697;SDS011;71109;52.514;5.708;2023-09-07T07:28:59;16.45;;;10.77;;
81697;SDS011;71109;52.514;5.708;2023-09-07T07:31:25;21.58;;;10.60;;
81697;SDS011;71109;52.514;5.708;2023-09-07T07:33:50;16.05;;;9.93;;
81697;SDS011;71109;52.514;5.708;2023-09-07T07:36:16;16.02;;;10.85;;
81697;SDS011;71109;52.514;5.708;2023-09-07T07:38:41;17.50;;;10.82;;
81697;SDS011;71109;52.514;5.708;2023-09-07T07:41:06;18.45;;;9.75;;
81697;SDS011;71109;52.514;5.708;2023-09-07T07:43:32;18.30;;;10.88;;
81697;SDS011;71109;52.514;5.708;2023-09-07T07:45:58;18.50;;;10.05;;
81697;SDS011;71109;52.514;5.708;2023-09-07T07:48:24;16.52;;;9.82;;
81697;SDS011;71109;52.514;5.708;2023-09-07T07:50:50;15.63;;;9.77;;
81697;SDS011;71109;52.514;5.708;2023-09-07T07:53:15;16.80;;;10.27;;
81697;SDS011;71109;52.514;5.708;2023-09-07T07:55:40;15.25;;;9.75;;
81697;SDS011;71109;52.514;5.708;2023-09-07T07:58:06;21.08;;;10.85;;
81697;SDS011;71109;52.514;5.708;2023-09-07T08:00:33;15.15;;;9.85;;
81697;SDS011;71109;52.514;5.708;2023-09-07T08:02:59;18.35;;;9.43;;
81697;SDS011;71109;52.514;5.708;2023-09-07T08:05:27;15.70;;;9.25;;
81697;SDS011;71109;52.514;5.708;2023-09-07T08:07:52;15.87;;;8.07;;
81697;SDS011;71109;52.514;5.708;2023-09-07T08:10:18;13.55;;;8.85;;
81697;SDS011;71109;52.514;5.708;2023-09-07T08:12:43;18.08;;;9.85;;
81697;SDS011;71109;52.514;5.708;2023-09-07T08:15:09;16.60;;;9.68;;
81697;SDS011;71109;52.514;5.708;2023-09-07T08:17:35;16.25;;;9.48;;
81697;SDS011;71109;52.514;5.708;2023-09-07T08:20:00;20.60;;;9.40;;
81697;SDS011;71109;52.514;5.708;2023-09-07T08:22:25;21.15;;;9.02;;
81697;SDS011;71109;52.514;5.708;2023-09-07T08:24:52;16.00;;;9.57;;
81697;SDS011;71109;52.514;5.708;2023-09-07T08:27:21;17.13;;;10.90;;
81697;SDS011;71109;52.514;5.708;2023-09-07T08:29:47;23.55;;;9.73;;
81697;SDS011;71109;52.514;5.708;2023-09-07T08:32:16;16.83;;;9.80;;
81697;SDS011;71109;52.514;5.708;2023-09-07T08:34:41;22.38;;;9.15;;
81697;SDS011;71109;52.514;5.708;2023-09-07T08:37:07;15.57;;;7.38;;
81697;SDS011;71109;52.514;5.708;2023-09-07T08:39:36;13.57;;;7.38;;
81697;SDS011;71109;52.514;5.708;2023-09-07T08:42:02;13.77;;;7.53;;
81697;SDS011;71109;52.514;5.708;2023-09-07T08:44:28;11.82;;;7.13;;
81697;SDS011;71109;52.514;5.708;2023-09-07T08:46:54;13.10;;;6.25;;
81697;SDS011;71109;52.514;5.708;2023-09-07T08:49:20;12.50;;;6.30;;
81697;SDS011;71109;52.514;5.708;2023-09-07T08:51:46;11.50;;;6.82;;
81697;SDS011;71109;52.514;5.708;2023-09-07T08:54:11;12.27;;;6.60;;
81697;SDS011;71109;52.514;5.708;2023-09-07T08:56:37;18.38;;;6.80;;
81697;SDS011;71109;52.514;5.708;2023-09-07T08:59:03;16.15;;;7.50;;
81697;SDS011;71109;52.514;5.708;2023-09-07T09:01:29;17.63;;;7.05;;
81697;SDS011;71109;52.514;5.708;2023-09-07T09:03:56;10.48;;;6.35;;
81697;SDS011;71109;52.514;5.708;2023-09-07T09:06:22;14.52;;;7.07;;
81697;SDS011;71109;52.514;5.708;2023-09-07T09:08:52;20.63;;;7.88;;
81697;SDS011;71109;52.514;5.708;2023-09-07T09:11:19;13.10;;;6.65;;
81697;SDS011;71109;52.514;5.708;2023-09-07T09:13:46;18.10;;;6.85;;
81697;SDS011;71109;52.514;5.708;2023-09-07T09:16:13;11.90;;;5.97;;
81697;SDS011;71109;52.514;5.708;2023-09-07T09:18:46;16.45;;;6.45;;
81697;SDS011;71109;52.514;5.708;2023-09-07T09:21:18;16.80;;;6.63;;
81697;SDS011;71109;52.514;5.708;2023-09-07T09:23:47;14.60;;;5.57;;
81697;SDS011;71109;52.514;5.708;2023-09-07T09:26:14;12.68;;;6.75;;
81697;SDS011;71109;52.514;5.708;2023-09-07T09:28:39;16.73;;;7.70;;
81697;SDS011;71109;52.514;5.708;2023-09-07T09:31:05;11.43;;;7.03;;
81697;SDS011;71109;52.514;5.708;2023-09-07T09:33:34;12.25;;;7.80;;
81697;SDS011;71109;52.514;5.708;2023-09-07T09:36:00;16.42;;;8.25;;
81697;SDS011;71109;52.514;5.708;2023-09-07T09:38:25;18.00;;;7.18;;
81697;SDS011;71109;52.514;5.708;2023-09-07T09:40:51;15.07;;;7.73;;
81697;SDS011;71109;52.514;5.708;2023-09-07T09:43:19;12.95;;;6.78;;
81697;SDS011;71109;52.514;5.708;2023-09-07T09:45:46;11.63;;;7.13;;
81697;SDS011;71109;52.514;5.708;2023-09-07T09:48:11;15.27;;;7.43;;
81697;SDS011;71109;52.514;5.708;2023-09-07T09:50:37;13.00;;;7.30;;
81697;SDS011;71109;52.514;5.708;2023-09-07T09:53:06;11.90;;;8.13;;
81697;SDS011;71109;52.514;5.708;2023-09-07T09:55:32;13.18;;;7.20;;
81697;SDS011;71109;52.514;5.708;2023-09-07T09:57:58;12.52;;;6.88;;
81697;SDS011;71109;52.514;5.708;2023-09-07T10:00:24;14.50;;;6.97;;
81697;SDS011;71109;52.514;5.708;2023-09-07T10:05:19;11.20;;;6.40;;
81697;SDS011;71109;52.514;5.708;2023-09-07T10:07:47;11.77;;;6.15;;
81697;SDS011;71109;52.514;5.708;2023-09-07T10:10:14;13.98;;;7.03;;
81697;SDS011;71109;52.514;5.708;2023-09-07T10:12:43;18.65;;;6.32;;
81697;SDS011;71109;52.514;5.708;2023-09-07T10:15:25;16.88;;;6.57;;
81697;SDS011;71109;52.514;5.708;2023-09-07T10:18:11;16.65;;;6.43;;
81697;SDS011;71109;52.514;5.708;2023-09-07T10:23:20;11.05;;;6.47;;
81697;SDS011;71109;52.514;5.708;2023-09-07T10:26:16;16.77;;;7.45;;
81697;SDS011;71109;52.514;5.708;2023-09-07T10:28:43;9.90;;;6.00;;
81697;SDS011;71109;52.514;5.708;2023-09-07T10:31:19;12.93;;;6.03;;
81697;SDS011;71109;52.514;5.708;2023-09-07T10:33:50;12.48;;;6.28;;
81697;SDS011;71109;52.514;5.708;2023-09-07T10:36:20;11.10;;;6.30;;
81697;SDS011;71109;52.514;5.708;2023-09-07T10:38:52;10.90;;;7.05;;
81697;SDS011;71109;52.514;5.708;2023-09-07T10:41:18;14.80;;;6.25;;
81697;SDS011;71109;52.514;5.708;2023-09-07T10:43:48;11.05;;;6.97;;
81697;SDS011;71109;52.514;5.708;2023-09-07T10:46:14;20.60;;;7.03;;
81697;SDS011;71109;52.514;5.708;2023-09-07T10:48:40;15.82;;;7.30;;
81697;SDS011;71109;52.514;5.708;2023-09-07T10:51:05;10.90;;;6.50;;
81697;SDS011;71109;52.514;5.708;2023-09-07T10:53:31;10.35;;;5.78;;
81697;SDS011;71109;52.514;5.708;2023-09-07T10:56:04;13.82;;;6.50;;
81697;SDS011;71109;52.514;5.708;2023-09-07T10:58:30;11.50;;;5.57;;
81697;SDS011;71109;52.514;5.708;2023-09-07T11:00:57;13.18;;;5.97;;
81697;SDS011;71109;52.514;5.708;2023-09-07T11:03:26;8.07;;;5.72;;
81697;SDS011;71109;52.514;5.708;2023-09-07T11:05:53;8.43;;;5.78;;
81697;SDS011;71109;52.514;5.708;2023-09-07T11:08:20;11.07;;;6.07;;
81697;SDS011;71109;52.514;5.708;2023-09-07T11:10:47;13.60;;;6.38;;
81697;SDS011;71109;52.514;5.708;2023-09-07T11:13:12;13.07;;;6.32;;
81697;SDS011;71109;52.514;5.708;2023-09-07T11:15:37;10.57;;;6.53;;
81697;SDS011;71109;52.514;5.708;2023-09-07T11:18:07;8.65;;;5.72;;
81697;SDS011;71109;52.514;5.708;2023-09-07T11:20:33;13.25;;;6.88;;
81697;SDS011;71109;52.514;5.708;2023-09-07T11:23:00;11.20;;;6.15;;
81697;SDS011;71109;52.514;5.708;2023-09-07T11:25:26;12.68;;;5.75;;
81697;SDS011;71109;52.514;5.708;2023-09-07T11:27:52;9.50;;;6.63;;
81697;SDS011;71109;52.514;5.708;2023-09-07T11:30:22;11.90;;;6.82;;
81697;SDS011;71109;52.514;5.708;2023-09-07T11:33:00;13.95;;;6.50;;
81697;SDS011;71109;52.514;5.708;2023-09-07T11:35:32;13.30;;;5.95;;
81697;SDS011;71109;52.514;5.708;2023-09-07T11:38:01;15.57;;;6.63;;
81697;SDS011;71109;52.514;5.708;2023-09-07T11:42:54;11.27;;;6.43;;
81697;SDS011;71109;52.514;5.708;2023-09-07T11:45:19;13.20;;;5.40;;
81697;SDS011;71109;52.514;5.708;2023-09-07T11:47:45;12.52;;;5.82;;
81697;SDS011;71109;52.514;5.708;2023-09-07T11:50:11;9.85;;;6.13;;
81697;SDS011;71109;52.514;5.708;2023-09-07T11:52:36;11.15;;;5.72;;
81697;SDS011;71109;52.514;5.708;2023-09-07T11:55:01;12.55;;;5.15;;
81697;SDS011;71109;52.514;5.708;2023-09-07T11:57:28;12.40;;;5.60;;
81697;SDS011;71109;52.514;5.708;2023-09-07T11:59:54;22.23;;;6.03;;
81697;SDS011;71109;52.514;5.708;2023-09-07T12:02:19;9.73;;;5.68;;
81697;SDS011;71109;52.514;5.708;2023-09-07T12:04:46;10.30;;;6.10;;
81697;SDS011;71109;52.514;5.708;2023-09-07T12:07:12;8.38;;;5.28;;
81697;SDS011;71109;52.514;5.708;2023-09-07T12:09:38;8.95;;;5.70;;
81697;SDS011;71109;52.514;5.708;2023-09-07T12:12:03;9.20;;;5.00;;
81697;SDS011;71109;52.514;5.708;2023-09-07T12:14:29;11.70;;;5.57;;
81697;SDS011;71109;52.514;5.708;2023-09-07T12:16:54;9.17;;;6.27;;
81697;SDS011;71109;52.514;5.708;2023-09-07T12:19:20;9.98;;;5.78;;
81697;SDS011;71109;52.514;5.708;2023-09-07T12:21:45;14.03;;;5.53;;
81697;SDS011;71109;52.514;5.708;2023-09-07T12:24:11;9.03;;;5.53;;
81697;SDS011;71109;52.514;5.708;2023-09-07T12:26:37;12.25;;;7.55;;
81697;SDS011;71109;52.514;5.708;2023-09-07T12:29:02;13.60;;;6.35;;
81697;SDS011;71109;52.514;5.708;2023-09-07T12:31:29;9.20;;;4.70;;
81697;SDS011;71109;52.514;5.708;2023-09-07T12:33:55;10.32;;;6.00;;
81697;SDS011;71109;52.514;5.708;2023-09-07T12:36:20;12.60;;;5.82;;
81697;SDS011;71109;52.514;5.708;2023-09-07T12:38:46;11.63;;;6.03;;
81697;SDS011;71109;52.514;5.708;2023-09-07T12:41:12;9.00;;;5.40;;
81697;SDS011;71109;52.514;5.708;2023-09-07T12:43:37;7.85;;;4.70;;
81697;SDS011;71109;52.514;5.708;2023-09-07T12:46:03;9.35;;;5.68;;
81697;SDS011;71109;52.514;5.708;2023-09-07T12:48:28;7.35;;;5.30;;
81697;SDS011;71109;52.514;5.708;2023-09-07T12:50:54;9.40;;;4.78;;
81697;SDS011;71109;52.514;5.708;2023-09-07T12:53:20;13.13;;;5.30;;
81697;SDS011;71109;52.514;5.708;2023-09-07T12:55:49;14.82;;;5.60;;
81697;SDS011;71109;52.514;5.708;2023-09-07T12:58:16;12.02;;;5.45;;
81697;SDS011;71109;52.514;5.708;2023-09-07T13:00:41;10.03;;;4.73;;
81697;SDS011;71109;52.514;5.708;2023-09-07T13:03:07;8.93;;;5.20;;
81697;SDS011;71109;52.514;5.708;2023-09-07T13:05:33;8.80;;;5.13;;
81697;SDS011;71109;52.514;5.708;2023-09-07T13:07:58;12.25;;;5.13;;
81697;SDS011;71109;52.514;5.708;2023-09-07T13:10:24;12.18;;;4.57;;
81697;SDS011;71109;52.514;5.708;2023-09-07T13:12:50;11.53;;;5.43;;
81697;SDS011;71109;52.514;5.708;2023-09-07T13:15:15;6.38;;;4.82;;
81697;SDS011;71109;52.514;5.708;2023-09-07T13:17:40;12.82;;;5.32;;
81697;SDS011;71109;52.514;5.708;2023-09-07T13:20:06;8.60;;;4.60;;
81697;SDS011;71109;52.514;5.708;2023-09-07T13:22:32;8.85;;;4.90;;
81697;SDS011;71109;52.514;5.708;2023-09-07T13:24:57;8.40;;;4.93;;
81697;SDS011;71109;52.514;5.708;2023-09-07T13:27:23;13.75;;;5.00;;
81697;SDS011;71109;52.514;5.708;2023-09-07T13:29:50;9.45;;;5.55;;
81697;SDS011;71109;52.514;5.708;2023-09-07T13:32:16;15.37;;;5.00;;
81697;SDS011;71109;52.514;5.708;2023-09-07T13:34:42;14.70;;;5.28;;
81697;SDS011;71109;52.514;5.708;2023-09-07T13:37:07;8.60;;;4.50;;
81697;SDS011;71109;52.514;5.708;2023-09-07T13:39:33;10.35;;;5.03;;
81697;SDS011;71109;52.514;5.708;2023-09-07T13:41:58;7.67;;;5.07;;
81697;SDS011;71109;52.514;5.708;2023-09-07T13:44:23;9.23;;;5.07;;
81697;SDS011;71109;52.514;5.708;2023-09-07T13:46:49;7.15;;;4.90;;
81697;SDS011;71109;52.514;5.708;2023-09-07T13:49:18;9.13;;;4.90;;
81697;SDS011;71109;52.514;5.708;2023-09-07T13:51:44;8.00;;;4.82;;
81697;SDS011;71109;52.514;5.708;2023-09-07T13:54:09;11.05;;;5.32;;
81697;SDS011;71109;52.514;5.708;2023-09-07T13:56:35;9.10;;;5.28;;
81697;SDS011;71109;52.514;5.708;2023-09-07T13:59:01;7.03;;;5.07;;
81697;SDS011;71109;52.514;5.708;2023-09-07T14:01:27;11.65;;;5.47;;
81697;SDS011;71109;52.514;5.708;2023-09-07T14:03:52;14.10;;;5.03;;
81697;SDS011;71109;52.514;5.708;2023-09-07T14:06:17;11.25;;;5.30;;
81697;SDS011;71109;52.514;5.708;2023-09-07T14:08:45;13.52;;;5.55;;
81697;SDS011;71109;52.514;5.708;2023-09-07T14:11:11;8.50;;;5.18;;
81697;SDS011;71109;52.514;5.708;2023-09-07T14:13:36;8.27;;;5.35;;
81697;SDS011;71109;52.514;5.708;2023-09-07T14:16:02;11.47;;;5.90;;
81697;SDS011;71109;52.514;5.708;2023-09-07T14:18:28;13.30;;;5.18;;
81697;SDS011;71109;52.514;5.708;2023-09-07T14:20:53;8.55;;;5.07;;
81697;SDS011;71109;52.514;5.708;2023-09-07T14:23:23;9.57;;;5.18;;
81697;SDS011;71109;52.514;5.708;2023-09-07T14:25:50;12.38;;;4.68;;
81697;SDS011;71109;52.514;5.708;2023-09-07T14:28:19;11.30;;;4.93;;
81697;SDS011;71109;52.514;5.708;2023-09-07T14:30:44;9.02;;;5.18;;
81697;SDS011;71109;52.514;5.708;2023-09-07T14:33:09;9.50;;;4.67;;